Time;durP1;ratioP1;P1;durP2;ratioP2;P2;SDS_P1;SDS_P2;PMS_P1;PMS_P2;Temp;Humidity;BMP_temperature;BMP_pressure;BME280_temperature;BME280_humidity;BME280_pressure;Samples;Min_cycle;Max_cycle;Signal;HPM_P1;HPM_P2
2022/08/10 00:01:40;;;;;;;5.93;3.10;;;23.90;48.30;;;;;;5065905;28;20843;-78
2022/08/10 00:04:08;;;;;;;9.60;2.80;;;23.90;48.40;;;;;;5063778;28;20468;-78
2022/08/10 00:06:46;;;;;;;6.50;3.00;;;23.80;48.50;;;;;;5064463;28;20585;-78
2022/08/10 00:09:13;;;;;;;5.80;3.27;;;23.80;48.50;;;;;;5081903;28;20474;-78
2022/08/10 00:11:43;;;;;;;9.80;3.60;;;23.80;48.60;;;;;;5081649;28;20474;-78
2022/08/10 00:14:11;;;;;;;6.67;3.00;;;23.70;48.60;;;;;;5064384;28;20473;-79
2022/08/10 00:16:39;;;;;;;5.97;3.30;;;23.70;48.60;;;;;;5059509;28;20481;-79
2022/08/10 00:19:07;;;;;;;11.10;3.13;;;23.70;48.80;;;;;;5077993;28;20465;-79
2022/08/10 00:21:36;;;;;;;4.70;2.90;;;23.70;48.80;;;;;;5092207;28;21081;-79
2022/08/10 00:24:04;;;;;;;6.20;3.00;;;23.60;48.90;;;;;;5076800;28;20466;-79
2022/08/10 00:26:34;;;;;;;7.10;2.93;;;23.60;48.90;;;;;;5061148;28;21079;-77
2022/08/10 00:29:23;;;;;;;7.53;3.57;;;23.60;48.90;;;;;;5063685;28;21104;-78
2022/08/10 00:31:51;;;;;;;6.90;3.37;;;23.50;49.00;;;;;;5076997;28;20485;-79
2022/08/10 00:34:25;;;;;;;5.47;2.83;;;23.50;49.10;;;;;;5067692;28;20476;-79
2022/08/10 00:36:53;;;;;;;7.27;3.00;;;23.40;49.20;;;;;;5094544;28;20513;-78
2022/08/10 00:39:22;;;;;;;6.87;3.60;;;23.30;49.30;;;;;;5077685;28;20483;-79
2022/08/10 00:41:51;;;;;;;5.47;3.00;;;23.30;49.40;;;;;;5063765;28;20481;-80
2022/08/10 00:44:36;;;;;;;6.77;3.00;;;23.30;49.50;;;;;;5084781;28;20486;-80
2022/08/10 00:47:05;;;;;;;5.13;3.10;;;23.20;49.60;;;;;;5064479;28;20474;-77
2022/08/10 00:49:33;;;;;;;9.57;3.20;;;23.20;49.60;;;;;;5066127;28;21154;-79
2022/08/10 00:52:03;;;;;;;8.43;3.40;;;23.20;49.70;;;;;;5065657;28;20914;-79
2022/08/10 00:54:32;;;;;;;5.13;2.73;;;23.10;49.80;;;;;;5063219;28;20461;-80
2022/08/10 00:57:00;;;;;;;7.27;2.73;;;23.00;49.80;;;;;;5057930;28;21145;-78
2022/08/10 00:59:47;;;;;;;6.00;3.00;;;23.00;49.90;;;;;;5097258;28;20461;-79
2022/08/10 01:02:27;;;;;;;10.37;3.40;;;23.00;50.00;;;;;;5081984;28;20471;-78
2022/08/10 01:04:55;;;;;;;5.37;2.70;;;22.90;50.00;;;;;;5080426;28;20547;-79
2022/08/10 01:07:48;;;;;;;18.10;4.77;;;22.90;50.00;;;;;;5060821;28;20521;-80
2022/08/10 01:10:25;;;;;;;5.93;3.10;;;22.90;50.10;;;;;;5083029;28;20483;-77
2022/08/10 01:13:01;;;;;;;8.73;2.70;;;22.80;50.10;;;;;;5082201;28;20474;-80
2022/08/10 01:15:37;;;;;;;6.10;2.90;;;22.80;50.20;;;;;;5082663;28;20472;-80
2022/08/10 01:18:09;;;;;;;7.87;3.30;;;22.70;50.30;;;;;;5065435;28;20467;-79
2022/08/10 01:20:45;;;;;;;6.57;3.20;;;22.70;50.30;;;;;;5082767;28;20477;-79
2022/08/10 01:23:31;;;;;;;8.63;3.23;;;22.70;50.40;;;;;;5082210;28;20482;-79
2022/08/10 01:26:26;;;;;;;7.03;3.20;;;22.60;50.40;;;;;;5081781;28;20550;-79
2022/08/10 01:29:27;;;;;;;5.73;3.17;;;22.60;50.40;;;;;;5077537;28;20548;-79
2022/08/10 01:32:02;;;;;;;6.93;2.83;;;22.50;50.50;;;;;;5031840;28;21132;-79
2022/08/10 01:34:33;;;;;;;6.87;3.37;;;22.40;50.50;;;;;;5062919;28;20469;-79
2022/08/10 01:37:06;;;;;;;6.53;3.13;;;22.40;50.60;;;;;;5082503;28;20465;-78
2022/08/10 01:39:40;;;;;;;6.57;3.10;;;22.30;50.70;;;;;;5081005;28;21202;-79
2022/08/10 01:42:12;;;;;;;7.33;3.27;;;22.30;50.80;;;;;;5079186;28;20544;-79
2022/08/10 01:44:45;;;;;;;6.33;3.50;;;22.30;50.90;;;;;;5066041;28;20459;-79
2022/08/10 01:50:09;;;;;;;9.20;3.10;;;22.20;51.00;;;;;;5084084;28;20454;-79
2022/08/10 01:52:41;;;;;;;7.43;3.30;;;22.10;51.10;;;;;;5060161;28;21000;-79
2022/08/10 01:55:12;;;;;;;6.70;3.10;;;22.10;51.20;;;;;;5065602;28;20471;-79
2022/08/10 01:57:42;;;;;;;9.43;3.67;;;22.00;51.30;;;;;;5062430;28;20447;-79
2022/08/10 02:00:11;;;;;;;11.40;3.73;;;22.00;51.40;;;;;;5092146;28;20447;-79
2022/08/10 02:03:29;;;;;;;7.97;3.40;;;21.90;51.50;;;;;;5076927;28;20980;-79
2022/08/10 02:06:00;;;;;;;14.60;3.37;;;21.90;51.60;;;;;;5078188;28;20836;-79
2022/08/10 02:08:30;;;;;;;6.20;3.50;;;21.80;51.80;;;;;;5079382;28;20469;-80
2022/08/10 02:11:00;;;;;;;6.43;3.07;;;21.80;51.90;;;;;;5082771;28;20961;-79
2022/08/10 02:13:29;;;;;;;8.00;3.30;;;21.80;51.80;;;;;;5078622;28;20477;-78
2022/08/10 02:16:00;;;;;;;6.90;3.60;;;21.70;51.80;;;;;;5063066;28;20474;-79
2022/08/10 02:18:31;;;;;;;5.97;3.37;;;21.60;52.00;;;;;;5071990;28;20454;-80
2022/08/10 02:21:04;;;;;;;5.57;3.33;;;21.50;52.00;;;;;;5073411;28;20474;-79
2022/08/10 02:23:36;;;;;;;10.03;3.50;;;21.50;52.10;;;;;;5087383;28;20878;-79
2022/08/10 02:26:07;;;;;;;6.13;3.30;;;21.40;52.20;;;;;;5107585;28;20455;-78
2022/08/10 02:28:37;;;;;;;8.23;3.90;;;21.40;52.20;;;;;;5076521;28;20489;-79
2022/08/10 02:31:08;;;;;;;5.47;2.83;;;21.40;52.30;;;;;;5069089;28;20532;-79
2022/08/10 02:33:41;;;;;;;5.70;2.90;;;21.30;52.40;;;;;;5084415;28;20478;-79
2022/08/10 02:36:32;;;;;;;7.57;3.33;;;21.30;52.50;;;;;;5088801;28;20458;-79
2022/08/10 02:39:03;;;;;;;6.57;3.70;;;21.30;52.50;;;;;;5091995;28;20461;-80
2022/08/10 02:41:40;;;;;;;8.17;3.40;;;21.30;52.50;;;;;;5087833;28;20507;-79
2022/08/10 02:44:38;;;;;;;6.07;3.13;;;21.20;52.70;;;;;;5086169;28;21045;-79
2022/08/10 02:47:29;;;;;;;8.30;3.70;;;21.20;52.80;;;;;;5065669;28;20688;-79
2022/08/10 02:50:26;;;;;;;6.43;3.13;;;21.20;52.80;;;;;;5072601;28;20465;-78
2022/08/10 02:53:01;;;;;;;6.70;3.40;;;21.20;52.90;;;;;;5087547;28;20499;-80
2022/08/10 02:55:34;;;;;;;6.53;3.07;;;21.10;53.00;;;;;;5081080;28;20467;-79
2022/08/10 02:58:07;;;;;;;6.20;3.73;;;21.10;53.00;;;;;;5083745;28;20465;-77
2022/08/10 03:00:49;;;;;;;8.70;3.60;;;21.10;53.00;;;;;;5084650;28;20481;-79
2022/08/10 03:03:22;;;;;;;8.63;3.77;;;21.10;53.00;;;;;;5085109;28;20488;-78
2022/08/10 03:06:02;;;;;;;6.50;3.60;;;21.00;53.00;;;;;;5079095;28;20542;-78
2022/08/10 03:08:36;;;;;;;7.20;3.60;;;21.00;53.00;;;;;;5084120;28;21068;-80
2022/08/10 03:11:06;;;;;;;12.03;4.20;;;20.90;53.00;;;;;;5066396;28;20461;-79
2022/08/10 03:13:35;;;;;;;7.03;3.87;;;20.90;52.90;;;;;;5084480;28;20456;-79
2022/08/10 03:16:05;;;;;;;8.90;4.00;;;20.70;52.80;;;;;;5064987;28;20472;-78
2022/08/10 03:18:34;;;;;;;6.70;4.00;;;20.60;53.00;;;;;;5067291;28;20449;-77
2022/08/10 03:21:03;;;;;;;9.00;4.07;;;20.60;53.20;;;;;;5068286;28;20456;-78
2022/08/10 03:23:38;;;;;;;7.30;4.00;;;20.50;53.20;;;;;;5085506;28;20466;-78
2022/08/10 03:26:07;;;;;;;7.00;4.13;;;20.50;53.20;;;;;;5080211;28;20468;-78
2022/08/10 03:28:36;;;;;;;7.60;3.57;;;20.40;53.30;;;;;;5084614;28;21156;-80
2022/08/10 03:31:04;;;;;;;9.63;3.80;;;20.40;53.50;;;;;;5067242;28;20468;-78
2022/08/10 03:33:36;;;;;;;8.00;3.77;;;20.40;53.40;;;;;;5080137;28;20477;-78
2022/08/10 03:36:06;;;;;;;9.50;3.53;;;20.40;53.50;;;;;;5086324;28;20465;-79
2022/08/10 03:38:55;;;;;;;5.93;3.50;;;20.30;53.40;;;;;;5068035;28;20518;-79
2022/08/10 03:41:31;;;;;;;6.40;3.33;;;20.20;53.50;;;;;;5066384;28;20448;-79
2022/08/10 03:44:04;;;;;;;8.10;3.80;;;20.20;53.60;;;;;;5064033;28;20548;-78
2022/08/10 03:46:35;;;;;;;6.13;3.63;;;20.20;53.70;;;;;;5081131;28;20499;-78
2022/08/10 03:49:05;;;;;;;7.33;3.57;;;20.20;53.80;;;;;;5078809;28;20481;-78
2022/08/10 03:51:34;;;;;;;5.87;3.50;;;20.20;53.80;;;;;;5083211;28;20557;-78
2022/08/10 03:54:04;;;;;;;6.70;4.07;;;20.20;53.80;;;;;;5069224;28;20468;-78
2022/08/10 03:56:36;;;;;;;5.40;3.40;;;20.20;53.80;;;;;;5079560;28;20461;-79
2022/08/10 03:59:06;;;;;;;6.83;4.10;;;20.20;53.80;;;;;;5080414;28;20468;-79
2022/08/10 04:01:34;;;;;;;7.63;3.70;;;20.20;53.80;;;;;;5065193;28;21319;-77
2022/08/10 04:04:22;;;;;;;7.43;4.03;;;20.10;53.80;;;;;;5064251;28;21500;-79
2022/08/10 04:06:52;;;;;;;8.93;3.43;;;20.00;53.80;;;;;;5067511;28;20462;-77
2022/08/10 04:09:25;;;;;;;7.93;3.80;;;19.90;53.90;;;;;;5094369;28;20848;-79
2022/08/10 04:12:14;;;;;;;6.13;3.93;;;19.80;54.00;;;;;;5078547;28;20488;-78
2022/08/10 04:14:42;;;;;;;6.57;3.90;;;19.70;54.10;;;;;;5068131;28;20455;-78
2022/08/10 04:17:20;;;;;;;8.70;3.70;;;19.70;54.30;;;;;;5065279;28;20480;-78
2022/08/10 04:20:16;;;;;;;6.60;3.93;;;19.70;54.40;;;;;;5080141;28;20494;-79
2022/08/10 04:22:46;;;;;;;7.60;3.93;;;19.70;54.50;;;;;;5078328;28;20489;-79
2022/08/10 04:25:16;;;;;;;7.23;3.83;;;19.70;54.50;;;;;;5080994;28;20458;-79
2022/08/10 04:27:45;;;;;;;7.20;3.73;;;19.70;54.60;;;;;;5078265;28;20483;-77
2022/08/10 04:30:14;;;;;;;8.00;3.87;;;19.70;54.70;;;;;;5081580;28;21134;-77
2022/08/10 04:32:45;;;;;;;7.90;4.13;;;19.80;54.70;;;;;;5058876;28;20492;-77
2022/08/10 04:35:15;;;;;;;9.53;4.27;;;19.80;54.80;;;;;;5064331;28;20470;-79
2022/08/10 04:37:44;;;;;;;6.80;4.23;;;19.80;54.90;;;;;;5078354;28;20472;-80
2022/08/10 04:40:17;;;;;;;9.50;4.03;;;19.80;54.90;;;;;;5077470;28;20771;-80
2022/08/10 04:42:57;;;;;;;7.10;3.93;;;19.80;54.90;;;;;;5081372;28;20480;-79
2022/08/10 04:45:32;;;;;;;10.23;4.00;;;19.80;54.90;;;;;;5075136;28;20462;-77
2022/08/10 04:48:19;;;;;;;10.00;4.40;;;19.80;55.00;;;;;;5070576;28;20474;-78
2022/08/10 04:51:08;;;;;;;6.40;3.60;;;19.90;55.00;;;;;;5075638;28;20545;-79
2022/08/10 04:53:44;;;;;;;8.00;3.77;;;19.90;55.00;;;;;;5073755;28;21261;-76
2022/08/10 04:56:35;;;;;;;9.40;4.07;;;19.90;55.10;;;;;;5071860;28;20475;-78
2022/08/10 04:59:04;;;;;;;13.27;4.30;;;20.00;55.10;;;;;;5073336;28;20477;-75
2022/08/10 05:01:33;;;;;;;7.63;4.17;;;20.10;55.20;;;;;;5076984;28;20476;-79
2022/08/10 05:04:20;;;;;;;7.50;4.20;;;20.20;55.30;;;;;;5070986;28;20471;-77
2022/08/10 05:07:10;;;;;;;7.70;3.60;;;20.40;55.40;;;;;;5070700;28;20449;-78
2022/08/10 05:09:44;;;;;;;9.57;3.73;;;20.50;55.50;;;;;;5074435;28;20476;-79
2022/08/10 05:12:32;;;;;;;8.00;4.50;;;20.70;55.80;;;;;;5073938;28;20568;-78
2022/08/10 05:15:05;;;;;;;7.03;4.30;;;20.90;56.10;;;;;;5057484;28;20547;-78
2022/08/10 05:17:33;;;;;;;7.23;3.50;;;21.40;56.00;;;;;;5063341;28;21291;-78
2022/08/10 05:20:01;;;;;;;7.03;3.70;;;22.20;55.20;;;;;;5073301;28;20451;-79
2022/08/10 05:22:38;;;;;;;7.83;3.27;;;23.20;54.00;;;;;;5074329;28;20486;-79
2022/08/10 05:25:10;;;;;;;6.00;3.47;;;24.10;52.80;;;;;;5073573;28;21057;-79
2022/08/10 05:27:40;;;;;;;8.50;4.20;;;25.10;51.70;;;;;;5062563;28;20518;-78
2022/08/10 05:30:10;;;;;;;6.80;4.10;;;25.90;50.80;;;;;;5059180;28;20486;-78
2022/08/10 05:32:38;;;;;;;6.27;3.80;;;26.60;50.00;;;;;;5071979;28;20559;-78
2022/08/10 05:35:28;;;;;;;5.70;3.57;;;27.20;49.40;;;;;;5075111;28;20442;-76
2022/08/10 05:38:17;;;;;;;7.50;3.23;;;27.90;48.60;;;;;;5064348;28;20461;-78
2022/08/10 05:40:46;;;;;;;8.30;3.00;;;28.60;47.90;;;;;;5074938;28;20465;-76
2022/08/10 05:43:22;;;;;;;7.67;4.17;;;29.20;47.30;;;;;;5075147;28;20477;-77
2022/08/10 05:45:52;;;;;;;9.27;3.93;;;29.80;46.80;;;;;;5074788;28;20490;-76
2022/08/10 05:48:41;;;;;;;8.80;3.53;;;30.40;46.30;;;;;;5073460;28;20478;-78
2022/08/10 05:51:28;;;;;;;9.30;3.67;;;31.10;45.80;;;;;;5088731;28;22178;-78
2022/08/10 05:53:56;;;;;;;7.20;3.73;;;31.80;45.10;;;;;;5082208;28;20550;-78
2022/08/10 05:56:35;;;;;;;6.37;3.60;;;32.40;44.40;;;;;;5084163;28;20460;-78
2022/08/10 05:59:26;;;;;;;6.63;3.60;;;33.00;43.40;;;;;;5058896;28;20450;-79
2022/08/10 06:02:21;;;;;;;6.73;3.83;;;33.70;42.70;;;;;;5087254;28;20466;-78
2022/08/10 06:05:05;;;;;;;6.07;3.50;;;;;;;;;;5057583;28;20515;-78
2022/08/10 06:07:36;;;;;;;8.00;3.90;;;34.90;41.00;;;;;;5078861;28;21060;-78
2022/08/10 06:10:07;;;;;;;7.90;3.97;;;35.00;40.10;;;;;;5080632;28;20831;-77
2022/08/10 06:12:40;;;;;;;9.23;5.23;;;33.90;39.60;;;;;;5061810;28;20528;-77
2022/08/10 06:15:23;;;;;;;11.00;6.17;;;32.20;40.10;;;;;;5076310;28;20454;-78
2022/08/10 06:18:13;;;;;;;9.60;4.50;;;30.30;41.10;;;;;;5094804;28;20509;-77
2022/08/10 06:20:42;;;;;;;12.50;4.07;;;28.80;42.20;;;;;;5094669;28;20476;-78
2022/08/10 06:23:12;;;;;;;8.57;4.30;;;27.70;43.20;;;;;;5079792;28;20488;-77
2022/08/10 06:25:40;;;;;;;8.00;4.23;;;26.80;44.30;;;;;;5078246;28;20455;-78
2022/08/10 06:28:32;;;;;;;9.47;3.77;;;26.10;45.00;;;;;;5079525;28;20463;-77
2022/08/10 06:31:04;;;;;;;12.33;3.90;;;25.50;45.80;;;;;;5062465;28;20531;-77
2022/08/10 06:33:34;;;;;;;7.10;3.57;;;25.10;46.50;;;;;;5062153;28;21032;-78
2022/08/10 06:36:04;;;;;;;9.87;3.70;;;24.70;47.00;;;;;;5064495;28;20452;-75
2022/08/10 06:38:33;;;;;;;11.27;3.70;;;24.50;47.70;;;;;;5082706;28;20448;-78
2022/08/10 06:41:07;;;;;;;11.90;3.37;;;24.20;48.10;;;;;;5079092;28;21328;-78
2022/08/10 06:43:36;;;;;;;7.70;3.60;;;24.00;48.80;;;;;;5082119;28;20525;-79
2022/08/10 06:46:10;;;;;;;9.13;3.97;;;23.90;48.90;;;;;;5062534;28;20468;-78
2022/08/10 06:48:46;;;;;;;8.47;4.00;;;23.70;49.50;;;;;;5079898;28;20468;-78
2022/08/10 06:51:20;;;;;;;6.70;2.77;;;23.60;49.80;;;;;;5064903;28;20469;-78
2022/08/10 06:53:53;;;;;;;6.83;3.77;;;23.60;50.10;;;;;;5078669;28;20456;-78
2022/08/10 06:56:24;;;;;;;8.17;3.20;;;23.60;50.40;;;;;;5079810;28;20454;-78
2022/08/10 06:59:10;;;;;;;7.90;3.10;;;23.60;50.60;;;;;;5063064;28;20454;-79
2022/08/10 07:01:54;;;;;;;7.37;3.20;;;23.50;50.60;;;;;;5074253;28;21069;-76
2022/08/10 07:04:25;;;;;;;6.83;3.50;;;23.50;50.90;;;;;;5081914;28;20448;-78
2022/08/10 07:07:03;;;;;;;8.43;4.20;;;23.50;51.40;;;;;;5078195;28;20472;-78
2022/08/10 07:09:32;;;;;;;7.03;4.60;;;23.50;51.30;;;;;;5078758;28;20913;-78
2022/08/10 07:12:00;;;;;;;8.00;3.63;;;23.50;51.40;;;;;;5062741;28;20476;-78
2022/08/10 07:14:38;;;;;;;8.33;3.50;;;23.50;51.50;;;;;;5076853;28;20471;-77
2022/08/10 07:17:10;;;;;;;6.10;3.30;;;23.50;51.90;;;;;;5060977;28;20465;-78
2022/08/10 07:19:46;;;;;;;5.10;2.73;;;23.60;51.90;;;;;;5078856;28;20462;-77
2022/08/10 07:22:22;;;;;;;12.53;3.43;;;23.60;51.90;;;;;;5079659;28;20488;-76
2022/08/10 07:25:12;;;;;;;8.30;3.33;;;23.60;52.00;;;;;;5064749;28;20460;-79
2022/08/10 07:27:42;;;;;;;9.60;3.37;;;23.70;52.10;;;;;;5077460;28;20454;-79
2022/08/10 07:30:29;;;;;;;10.00;3.40;;;23.70;52.30;;;;;;5077552;28;21283;-78
2022/08/10 07:33:01;;;;;;;14.50;3.33;;;23.70;52.30;;;;;;5063987;28;20484;-79
2022/08/10 07:35:31;;;;;;;9.87;3.23;;;23.80;52.40;;;;;;5079495;28;20993;-79
2022/08/10 07:38:13;;;;;;;6.43;3.17;;;23.80;52.30;;;;;;5080486;28;20541;-77
2022/08/10 07:40:43;;;;;;;5.70;2.37;;;23.90;52.50;;;;;;5066869;28;20450;-79
2022/08/10 07:43:13;;;;;;;6.10;2.60;;;24.00;52.40;;;;;;5054321;28;20909;-78
2022/08/10 07:45:41;;;;;;;12.23;3.20;;;24.10;52.40;;;;;;5081016;28;21084;-78
2022/08/10 07:48:15;;;;;;;7.03;3.00;;;24.20;52.30;;;;;;5077058;28;20470;-77
2022/08/10 07:50:45;;;;;;;6.50;2.60;;;24.20;52.20;;;;;;5078284;28;20471;-77
2022/08/10 07:53:19;;;;;;;7.43;2.87;;;24.30;52.10;;;;;;5080822;28;20559;-76
2022/08/10 07:55:49;;;;;;;7.60;2.57;;;24.40;52.10;;;;;;5066801;28;21115;-78
2022/08/10 07:58:41;;;;;;;6.70;2.80;;;24.50;51.90;;;;;;5068997;28;20523;-78
2022/08/10 08:01:22;;;;;;;8.10;2.60;;;24.60;51.80;;;;;;5077047;28;20478;-77
2022/08/10 08:03:53;;;;;;;7.17;2.37;;;24.60;51.80;;;;;;5082881;28;20543;-77
2022/08/10 08:06:39;;;;;;;5.00;2.27;;;24.70;51.70;;;;;;5074070;28;20451;-78
2022/08/10 08:09:07;;;;;;;9.40;3.00;;;24.80;51.60;;;;;;5060119;28;20838;-78
2022/08/10 08:11:36;;;;;;;15.10;3.00;;;24.90;51.50;;;;;;5059971;28;20487;-77
2022/08/10 08:14:05;;;;;;;6.93;2.00;;;24.90;51.50;;;;;;5060282;28;20486;-78
2022/08/10 08:16:35;;;;;;;4.63;2.33;;;25.00;51.40;;;;;;5075916;28;20487;-76
2022/08/10 08:19:04;;;;;;;6.30;2.70;;;25.10;51.20;;;;;;5078379;28;20493;-78
2022/08/10 08:21:54;;;;;;;7.90;2.87;;;25.10;51.10;;;;;;5078290;28;21023;-78
2022/08/10 08:24:43;;;;;;;7.43;2.43;;;25.20;51.00;;;;;;5076018;28;20475;-78
2022/08/10 08:27:13;;;;;;;6.37;2.40;;;25.30;51.00;;;;;;5094597;28;20550;-77
2022/08/10 08:29:44;;;;;;;6.80;2.70;;;25.30;50.90;;;;;;5062262;28;20470;-77
2022/08/10 08:32:15;;;;;;;7.83;2.37;;;25.40;50.70;;;;;;5076754;28;20502;-78
2022/08/10 08:34:46;;;;;;;5.40;2.67;;;25.40;50.50;;;;;;5074989;28;21059;-78
2022/08/10 08:37:17;;;;;;;8.37;2.60;;;25.50;50.40;;;;;;5079275;28;20447;-78
2022/08/10 08:40:10;;;;;;;7.90;2.30;;;25.50;50.40;;;;;;5079597;28;20497;-77
2022/08/10 08:42:50;;;;;;;6.77;2.70;;;25.60;50.40;;;;;;5078103;28;20477;-78
2022/08/10 08:45:24;;;;;;;6.43;2.33;;;25.60;50.30;;;;;;5080199;28;20453;-78
2022/08/10 08:48:13;;;;;;;7.83;2.93;;;25.70;50.20;;;;;;5085024;28;20553;-78
2022/08/10 08:50:58;;;;;;;7.80;3.70;;;25.80;50.10;;;;;;5083871;28;20477;-78
2022/08/10 08:53:42;;;;;;;8.73;2.97;;;25.90;50.00;;;;;;5079680;28;20485;-77
2022/08/10 08:56:40;;;;;;;4.70;2.23;;;25.90;49.70;;;;;;5081123;28;20466;-78
2022/08/10 08:59:28;;;;;;;7.50;2.40;;;25.90;49.60;;;;;;5084465;28;20458;-77
2022/08/10 09:02:15;;;;;;;4.77;2.13;;;26.00;49.30;;;;;;5083485;28;20472;-78
2022/08/10 09:04:56;;;;;;;5.90;2.33;;;26.10;49.00;;;;;;5083711;28;21033;-77
2022/08/10 09:07:51;;;;;;;8.07;3.27;;;26.10;49.00;;;;;;5078965;28;20444;-77
2022/08/10 09:10:41;;;;;;;13.10;3.30;;;26.20;49.00;;;;;;5076625;28;20471;-78
2022/08/10 09:13:16;;;;;;;5.87;2.50;;;26.20;49.00;;;;;;5080005;28;20482;-78
2022/08/10 09:15:50;;;;;;;6.03;2.70;;;26.20;48.80;;;;;;5078471;28;21264;-78
2022/08/10 09:18:23;;;;;;;5.83;2.60;;;26.30;48.30;;;;;;5075421;28;20862;-77
2022/08/10 09:21:03;;;;;;;6.47;2.80;;;26.40;48.50;;;;;;5077698;28;20465;-78
2022/08/10 09:23:44;;;;;;;4.70;2.57;;;26.40;48.30;;;;;;5079963;28;21041;-77
2022/08/10 09:26:42;;;;;;;4.87;2.60;;;26.50;48.20;;;;;;5072430;28;20456;-77
2022/08/10 09:29:13;;;;;;;9.10;3.00;;;26.60;48.10;;;;;;5077960;28;20452;-77
2022/08/10 09:31:45;;;;;;;7.00;2.80;;;26.60;48.00;;;;;;5074701;28;20538;-78
2022/08/10 09:34:46;;;;;;;8.97;3.17;;;26.70;48.00;;;;;;5064974;28;20879;-77
2022/08/10 09:37:41;;;;;;;11.00;2.70;;;26.70;47.60;;;;;;5075805;28;20465;-77
2022/08/10 09:40:39;;;;;;;9.93;2.77;;;26.70;47.70;;;;;;5078807;28;21298;-78
2022/08/10 09:43:36;;;;;;;13.33;3.10;;;26.80;47.40;;;;;;5060870;28;21537;-78
2022/08/10 09:46:11;;;;;;;6.40;3.17;;;26.80;47.30;;;;;;5073869;28;21023;-77
2022/08/10 09:48:47;;;;;;;8.73;2.50;;;26.80;47.10;;;;;;5076362;28;20454;-78
2022/08/10 09:51:29;;;;;;;8.53;2.70;;;26.80;47.20;;;;;;5079208;28;20491;-78
2022/08/10 09:54:39;;;;;;;7.37;3.03;;;26.80;47.30;;;;;;5079010;28;20445;-78
2022/08/10 09:57:18;;;;;;;5.50;2.43;;;26.80;46.90;;;;;;5075756;28;20449;-77
2022/08/10 10:00:09;;;;;;;6.67;2.60;;;26.90;46.50;;;;;;5075076;28;20867;-78
2022/08/10 10:02:51;;;;;;;7.37;2.90;;;26.90;45.90;;;;;;5056608;28;20476;-79
2022/08/10 10:05:32;;;;;;;4.93;2.40;;;26.90;45.70;;;;;;5059914;28;20527;-78
2022/08/10 10:08:09;;;;;;;5.10;2.30;;;27.00;45.30;;;;;;5077455;28;20481;-79
2022/08/10 10:10:43;;;;;;;5.60;2.60;;;27.10;45.20;;;;;;5078768;28;20477;-78
2022/08/10 10:13:27;;;;;;;6.07;2.93;;;27.20;44.70;;;;;;5072032;28;21363;-79
2022/08/10 10:16:43;;;;;;;5.07;2.30;;;27.30;44.50;;;;;;5088360;28;20488;-78
2022/08/10 10:19:34;;;;;;;7.50;2.53;;;27.40;44.40;;;;;;5063236;28;20469;-78
2022/08/10 10:22:25;;;;;;;5.60;2.93;;;27.40;44.20;;;;;;5075811;28;20488;-79
2022/08/10 10:24:59;;;;;;;5.33;2.30;;;27.40;44.00;;;;;;5072209;28;21061;-78
2022/08/10 10:27:39;;;;;;;8.53;2.37;;;27.40;44.10;;;;;;5075167;28;20459;-78
2022/08/10 10:30:11;;;;;;;7.53;2.60;;;27.50;43.70;;;;;;5075623;28;20973;-78
2022/08/10 10:32:47;;;;;;;5.83;2.20;;;27.60;43.50;;;;;;5076215;28;20506;-78
2022/08/10 10:35:23;;;;;;;4.57;2.20;;;27.60;43.30;;;;;;5075210;28;20468;-78
2022/08/10 10:37:54;;;;;;;6.60;2.60;;;27.70;43.30;;;;;;5077048;28;20456;-76
2022/08/10 10:40:38;;;;;;;6.33;2.80;;;27.80;43.20;;;;;;5073338;28;20461;-78
2022/08/10 10:43:15;;;;;;;5.30;2.47;;;27.80;42.90;;;;;;5078590;28;20837;-77
2022/08/10 10:45:55;;;;;;;8.33;2.60;;;27.80;42.50;;;;;;5075433;28;21011;-79
2022/08/10 10:48:30;;;;;;;4.53;2.20;;;27.90;42.80;;;;;;5070723;28;20459;-78
2022/08/10 10:51:07;;;;;;;10.50;2.83;;;27.90;42.80;;;;;;5043253;28;20502;-78
2022/08/10 10:53:46;;;;;;;5.17;2.30;;;27.90;42.60;;;;;;5083171;28;20460;-78
2022/08/10 10:56:23;;;;;;;4.77;2.00;;;27.90;42.70;;;;;;5078013;28;20451;-77
2022/08/10 10:59:02;;;;;;;5.77;2.67;;;28.00;42.50;;;;;;5078199;28;20460;-78
2022/08/10 11:02:04;;;;;;;6.97;2.80;;;28.00;42.60;;;;;;5081310;28;20517;-80
2022/08/10 11:04:40;;;;;;;6.03;2.47;;;28.10;42.50;;;;;;5083529;28;20473;-79
2022/08/10 11:07:17;;;;;;;15.73;2.87;;;28.10;42.40;;;;;;5078756;28;21331;-80
2022/08/10 11:10:02;;;;;;;5.73;2.50;;;28.10;42.40;;;;;;5075144;28;20464;-78
2022/08/10 11:12:57;;;;;;;4.70;2.70;;;28.10;42.30;;;;;;5078792;28;20490;-77
2022/08/10 11:15:57;;;;;;;7.80;3.23;;;28.10;42.30;;;;;;5068332;28;21043;-80
2022/08/10 11:18:36;;;;;;;7.13;3.03;;;28.10;42.20;;;;;;5079737;28;20475;-78
2022/08/10 11:21:13;;;;;;;6.37;2.33;;;28.10;42.30;;;;;;5083728;28;20476;-77
2022/08/10 11:23:50;;;;;;;7.57;2.57;;;28.10;42.20;;;;;;5080390;28;20447;-78
2022/08/10 11:26:46;;;;;;;10.73;2.67;;;28.10;42.20;;;;;;5076013;28;20473;-78
2022/08/10 11:29:19;;;;;;;5.90;2.10;;;28.10;42.10;;;;;;5076278;28;20447;-79
2022/08/10 11:31:53;;;;;;;7.57;2.70;;;28.10;42.00;;;;;;5064680;28;20486;-77
2022/08/10 11:34:34;;;;;;;13.53;2.70;;;28.20;42.00;;;;;;5077783;28;20548;-78
2022/08/10 11:37:20;;;;;;;7.20;2.60;;;28.10;42.00;;;;;;5081193;28;20959;-78
2022/08/10 11:39:54;;;;;;;4.90;2.37;;;28.10;41.90;;;;;;5078723;28;20484;-78
2022/08/10 11:42:30;;;;;;;6.83;2.87;;;28.00;41.70;;;;;;5078099;28;20469;-77
2022/08/10 11:45:08;;;;;;;5.93;2.57;;;27.90;41.80;;;;;;5079176;28;20498;-78
2022/08/10 11:47:44;;;;;;;5.00;2.50;;;28.00;41.90;;;;;;5081042;28;21024;-79
2022/08/10 11:50:21;;;;;;;8.77;2.47;;;28.00;41.90;;;;;;5059553;28;20465;-77
2022/08/10 11:52:56;;;;;;;6.83;3.07;;;28.00;41.70;;;;;;5078524;28;20934;-78
2022/08/10 11:55:28;;;;;;;5.17;2.27;;;28.10;41.80;;;;;;5077644;28;20458;-78
2022/08/10 11:58:00;;;;;;;8.43;2.40;;;28.10;42.00;;;;;;5072561;28;20458;-79
2022/08/10 12:00:34;;;;;;;8.50;2.63;;;28.10;42.00;;;;;;5075411;28;20779;-78
2022/08/10 12:03:05;;;;;;;6.43;2.87;;;28.20;42.00;;;;;;5075208;28;21280;-79
2022/08/10 12:05:38;;;;;;;6.07;2.70;;;28.30;42.10;;;;;;5062374;28;20988;-78
2022/08/10 12:08:23;;;;;;;7.40;2.70;;;28.30;42.00;;;;;;5055536;28;20459;-80
2022/08/10 12:11:43;;;;;;;6.83;2.63;;;28.40;41.70;;;;;;5075498;28;20555;-78
2022/08/10 12:14:16;;;;;;;8.50;2.50;;;28.50;41.60;;;;;;5061999;28;20467;-79
2022/08/10 12:16:52;;;;;;;5.27;2.57;;;28.50;41.60;;;;;;5061030;28;20847;-79
2022/08/10 12:19:23;;;;;;;5.23;2.70;;;28.50;41.40;;;;;;5078385;28;20463;-78
2022/08/10 12:22:00;;;;;;;6.13;2.40;;;28.60;40.90;;;;;;5074096;28;20490;-79
2022/08/10 12:24:37;;;;;;;5.50;2.47;;;28.60;41.00;;;;;;5077510;28;20449;-79
2022/08/10 12:27:11;;;;;;;5.90;2.70;;;28.60;40.70;;;;;;5075007;28;20584;-78
2022/08/10 12:29:45;;;;;;;5.07;2.20;;;28.70;41.00;;;;;;5075901;28;20550;-78
2022/08/10 12:32:19;;;;;;;10.10;2.87;;;28.80;41.00;;;;;;5074872;28;20493;-79
2022/08/10 12:34:56;;;;;;;5.70;2.60;;;28.80;40.90;;;;;;5079770;28;20459;-80
2022/08/10 12:37:33;;;;;;;8.10;3.43;;;28.80;40.90;;;;;;5077096;28;20450;-78
2022/08/10 12:40:08;;;;;;;6.00;2.23;;;28.90;40.90;;;;;;5075408;28;20449;-78
2022/08/10 12:43:01;;;;;;;8.33;2.80;;;28.90;40.70;;;;;;5056608;28;20484;-78
2022/08/10 12:45:59;;;;;;;8.00;2.63;;;28.90;40.70;;;;;;5076745;28;20537;-79
2022/08/10 12:48:36;;;;;;;6.83;2.83;;;28.90;40.60;;;;;;5079005;28;20996;-80
2022/08/10 12:51:10;;;;;;;7.63;2.57;;;28.90;40.60;;;;;;5060086;28;20845;-77
2022/08/10 12:53:49;;;;;;;5.50;2.37;;;28.90;40.70;;;;;;5072106;28;20838;-77
2022/08/10 12:56:26;;;;;;;6.10;2.30;;;28.90;40.30;;;;;;5075962;28;20450;-79
2022/08/10 12:58:55;;;;;;;6.30;2.53;;;28.90;40.60;;;;;;5060108;28;20456;-81
2022/08/10 13:01:31;;;;;;;6.70;2.63;;;29.00;40.60;;;;;;5074058;28;20465;-80
2022/08/10 13:04:26;;;;;;;5.87;2.70;;;29.00;40.20;;;;;;5062801;28;20867;-76
2022/08/10 13:06:57;;;;;;;7.17;2.67;;;29.00;40.10;;;;;;5074013;28;20459;-79
2022/08/10 13:09:27;;;;;;;6.83;2.53;;;29.10;40.20;;;;;;5074759;28;20467;-80
2022/08/10 13:12:01;;;;;;;10.13;3.50;;;29.10;40.00;;;;;;5072385;28;21331;-79
2022/08/10 13:14:54;;;;;;;5.80;2.60;;;29.00;39.90;;;;;;5073021;28;20477;-79
2022/08/10 13:17:25;;;;;;;7.10;2.87;;;29.00;40.00;;;;;;5074042;28;20468;-78
2022/08/10 13:20:14;;;;;;;4.60;2.40;;;28.90;40.00;;;;;;5087412;28;21122;-78
2022/08/10 13:22:44;;;;;;;5.10;2.40;;;28.80;40.00;;;;;;5074006;28;20480;-79
2022/08/10 13:25:17;;;;;;;8.57;2.83;;;28.80;40.10;;;;;;5076459;28;20456;-78
2022/08/10 13:27:47;;;;;;;5.97;2.50;;;28.80;40.10;;;;;;5072898;28;20467;-79
2022/08/10 13:30:30;;;;;;;7.37;2.73;;;28.90;40.20;;;;;;5072652;28;20578;-79
2022/08/10 13:33:07;;;;;;;5.03;2.37;;;28.90;40.20;;;;;;5059155;28;20570;-79
2022/08/10 13:35:36;;;;;;;5.27;2.73;;;28.90;40.20;;;;;;5059196;28;20467;-80
2022/08/10 13:38:07;;;;;;;5.40;3.00;;;29.00;40.20;;;;;;5090172;28;20471;-78
2022/08/10 13:40:38;;;;;;;6.13;2.63;;;29.00;40.10;;;;;;5076660;28;20465;-78